Time;durP1;ratioP1;P1;durP2;ratioP2;P2;SDS_P1;SDS_P2;PMS_P1;PMS_P2;Temp;Humidity;BMP_temperature;BMP_pressure;BME280_temperature;BME280_humidity;BME280_pressure;Samples;Min_cycle;Max_cycle;Signal;HPM_P1;HPM_P2
2022/09/29 00:00:53;;;;;;;2.60;2.50;;;;;;;10.08;100.00;99362.47;1721118;82;21450;-72
2022/09/29 00:03:21;;;;;;;3.62;3.33;;;;;;;10.06;100.00;99354.68;1710855;82;21108;-74
2022/09/29 00:05:54;;;;;;;3.27;3.07;;;;;;;10.04;100.00;99352.73;1729715;80;21436;-72
2022/09/29 00:08:26;;;;;;;3.33;3.13;;;;;;;10.02;100.00;99361.45;1711198;82;21000;-72
2022/09/29 00:10:53;;;;;;;4.53;3.10;;;;;;;10.00;100.00;99354.19;1718825;83;21528;-73
2022/09/29 00:13:19;;;;;;;6.37;2.95;;;;;;;9.94;100.00;99355.84;1692788;83;21036;-73
2022/09/29 00:15:56;;;;;;;3.07;2.97;;;;;;;9.87;100.00;99356.85;1714004;82;21028;-75
2022/09/29 00:18:22;;;;;;;3.55;3.25;;;;;;;9.80;100.00;99363.53;1717475;80;21002;-71
2022/09/29 00:21:10;;;;;;;3.17;3.00;;;;;;;9.74;100.00;99369.17;1703213;82;21108;-74
2022/09/29 00:23:37;;;;;;;3.40;3.10;;;;;;;9.72;100.00;99365.90;1692506;83;21124;-73
2022/09/29 00:26:09;;;;;;;3.23;3.03;;;;;;;9.68;100.00;99362.51;1714878;82;21045;-71
2022/09/29 00:28:37;;;;;;;3.30;3.10;;;;;;;9.63;100.00;99366.32;1717533;82;21041;-73
2022/09/29 00:31:05;;;;;;;3.67;3.47;;;;;;;9.58;100.00;99374.09;1701236;83;21009;-73
2022/09/29 00:33:35;;;;;;;3.40;3.20;;;;;;;9.54;100.00;99376.34;1695584;83;20964;-72
2022/09/29 00:36:09;;;;;;;3.53;3.23;;;;;;;9.53;100.00;99379.52;1701204;84;21591;-73
2022/09/29 00:38:35;;;;;;;2.90;2.80;;;;;;;9.53;100.00;99384.84;1690180;83;21140;-73
2022/09/29 00:41:02;;;;;;;3.55;3.35;;;;;;;9.52;100.00;99385.85;1697568;83;21088;-73
2022/09/29 00:44:04;;;;;;;3.47;3.27;;;;;;;9.51;100.00;99389.55;1697677;83;21017;-75
2022/09/29 00:46:41;;;;;;;3.57;3.37;;;;;;;9.50;100.00;99387.91;1702325;83;21065;-75
2022/09/29 00:49:30;;;;;;;2.90;2.77;;;;;;;9.50;100.00;99398.55;1704643;82;21035;-72
2022/09/29 00:52:07;;;;;;;3.93;3.73;;;;;;;9.50;100.00;99395.88;1692101;83;21022;-81
2022/09/29 00:54:41;;;;;;;2.90;2.80;;;;;;;9.49;100.00;99394.27;1701142;83;21045;-73
2022/09/29 00:57:12;;;;;;;3.93;3.73;;;;;;;9.50;100.00;99392.41;1697972;83;21551;-72
2022/09/29 00:59:46;;;;;;;3.50;3.30;;;;;;;9.48;100.00;99394.46;1692233;83;21067;-71
2022/09/29 01:02:14;;;;;;;3.67;3.40;;;;;;;9.46;100.00;99401.31;1685518;83;20977;-73
2022/09/29 01:04:40;;;;;;;3.87;3.47;;;;;;;9.41;100.00;99407.74;1703815;83;21085;-73
2022/09/29 01:07:09;;;;;;;4.83;3.90;;;;;;;9.35;100.00;99408.56;1700037;83;21037;-74
2022/09/29 01:09:38;;;;;;;5.53;3.60;;;;;;;9.32;100.00;99416.45;1694603;83;21048;-72
2022/09/29 01:12:04;;;;;;;4.13;3.83;;;;;;;9.33;100.00;99415.92;1705559;83;20989;-72
2022/09/29 01:14:34;;;;;;;4.27;3.97;;;;;;;9.35;100.00;99421.86;1677187;84;21035;-72
2022/09/29 01:17:01;;;;;;;4.07;3.73;;;;;;;9.36;100.00;99428.80;1716828;82;20966;-72
2022/09/29 01:19:49;;;;;;;3.80;3.50;;;;;;;9.37;100.00;99429.13;1704950;83;21083;-70
2022/09/29 01:23:02;;;;;;;3.20;3.00;;;;;;;9.38;100.00;99429.45;1692418;83;21052;-72
2022/09/29 01:29:25;;;;;;;4.33;3.93;;;;;;;9.31;100.00;99421.96;1850595;75;22924;-72
2022/09/29 01:31:59;;;;;;;4.03;3.73;;;;;;;9.27;100.00;99425.53;1794587;78;21292;-73
2022/09/29 01:34:40;;;;;;;4.43;4.03;;;;;;;9.27;100.00;99420.73;1765633;78;21009;-71
2022/09/29 01:37:29;;;;;;;5.97;4.90;;;;;;;9.27;100.00;99424.72;1796891;78;21626;-71
2022/09/29 01:40:09;;;;;;;5.53;5.03;;;;;;;9.26;100.00;99425.73;1778971;78;20982;-73
2022/09/29 01:42:47;;;;;;;6.27;5.67;;;;;;;9.23;100.00;99440.75;1777888;80;21071;-72
2022/09/29 01:45:25;;;;;;;7.37;6.63;;;;;;;9.19;100.00;99446.16;1799583;78;20977;-72
2022/09/29 01:47:57;;;;;;;6.73;6.03;;;;;;;9.15;100.00;99439.09;1794406;78;21526;-73
2022/09/29 01:50:38;;;;;;;7.70;5.87;;;;;;;9.15;100.00;99447.91;1796223;78;20994;-71
2022/09/29 01:53:09;;;;;;;9.00;6.03;;;;;;;9.16;100.00;99445.55;1796903;77;20965;-72
2022/09/29 01:55:42;;;;;;;7.30;6.43;;;;;;;9.19;100.00;99459.45;1753230;80;21043;-73
2022/09/29 01:58:19;;;;;;;5.47;4.97;;;;;;;9.18;100.00;99459.16;1749871;80;21102;-72
2022/09/29 02:00:53;;;;;;;14.57;6.93;;;;;;;9.15;100.00;99460.37;1736279;81;20997;-73
2022/09/29 02:03:30;;;;;;;6.67;6.03;;;;;;;9.19;100.00;99464.26;1754869;80;20985;-73
2022/09/29 02:06:05;;;;;;;6.57;5.97;;;;;;;9.23;100.00;99458.88;1708126;81;21671;-72
2022/09/29 02:08:41;;;;;;;8.30;6.80;;;;;;;9.30;100.00;99462.86;1711835;83;21072;-73
2022/09/29 02:11:12;;;;;;;6.33;5.83;;;;;;;9.33;100.00;99463.28;1723124;81;21079;-75
2022/09/29 02:13:47;;;;;;;6.80;6.20;;;;;;;9.37;100.00;99463.70;1702426;83;21004;-72
2022/09/29 02:16:18;;;;;;;5.77;5.27;;;;;;;9.41;100.00;99464.12;1734156;80;21520;-73
2022/09/29 02:18:54;;;;;;;6.40;5.47;;;;;;;9.43;100.00;99462.88;1717709;82;21061;-72
2022/09/29 02:21:22;;;;;;;6.27;5.67;;;;;;;9.47;100.00;99459.31;1716652;82;21094;-72
2022/09/29 02:23:51;;;;;;;5.93;5.43;;;;;;;9.47;100.00;99468.63;1717387;83;21035;-73
2022/09/29 02:26:18;;;;;;;6.43;5.73;;;;;;;9.51;100.00;99461.87;1705810;80;21031;-74
2022/09/29 02:28:46;;;;;;;6.20;5.63;;;;;;;9.55;100.00;99461.80;1720639;81;21588;-74
2022/09/29 02:31:13;;;;;;;6.35;5.75;;;;;;;9.61;100.00;99465.48;1745921;80;21069;-73
2022/09/29 02:33:39;;;;;;;5.97;5.37;;;;;;;9.63;100.00;99468.77;1749956;79;20981;-74
2022/09/29 02:36:20;;;;;;;6.78;6.08;;;;;;;9.65;100.00;99466.71;1748609;80;21041;-80
2022/09/29 02:39:12;;;;;;;6.00;5.50;;;;;;;9.64;100.00;99471.19;1733577;81;21525;-74
2022/09/29 02:42:06;;;;;;;6.13;5.53;;;;;;;9.64;100.00;99470.38;1744372;80;21637;-72
2022/09/29 02:45:01;;;;;;;6.13;5.53;;;;;;;9.63;100.00;99470.91;1760442;78;21061;-76
2022/09/29 02:47:48;;;;;;;6.97;6.40;;;;;;;9.62;100.00;99475.90;1712004;82;21060;-76
2022/09/29 02:50:44;;;;;;;6.90;6.20;;;;;;;9.59;100.00;99471.00;1770096;79;22251;-74
2022/09/29 02:53:43;;;;;;;6.10;5.57;;;;;;;9.58;100.00;99472.53;1776242;78;21563;-74
2022/09/29 02:56:23;;;;;;;5.77;5.33;;;;;;;9.59;100.00;99470.16;1769558;79;20978;-73
2022/09/29 02:59:04;;;;;;;5.97;5.50;;;;;;;9.56;100.00;99470.06;1782456;79;21005;-73
2022/09/29 03:01:33;;;;;;;5.63;4.90;;;;;;;9.57;100.00;99469.55;1754761;80;21025;-78
2022/09/29 03:04:00;;;;;;;5.50;5.00;;;;;;;9.54;100.00;99463.62;1748204;80;21017;-72
2022/09/29 03:06:27;;;;;;;5.67;5.17;;;;;;;9.55;100.00;99467.92;1764321;80;21020;-72
2022/09/29 03:08:54;;;;;;;6.90;5.27;;;;;;;9.55;100.00;99472.44;1750979;79;21034;-72
2022/09/29 03:11:20;;;;;;;6.37;5.77;;;;;;;9.54;100.00;99470.27;1752184;80;20985;-74
2022/09/29 03:13:47;;;;;;;4.80;4.40;;;;;;;9.56;100.00;99478.05;1728566;82;20950;-75
2022/09/29 03:16:13;;;;;;;6.42;4.78;;;;;;;9.54;100.00;99479.58;1752648;79;20998;-73
2022/09/29 03:18:41;;;;;;;5.10;4.80;;;;;;;9.54;100.00;99482.23;1744931;80;21550;-73
2022/09/29 03:21:07;;;;;;;4.67;4.28;;;;;;;9.53;100.00;99487.75;1752954;80;20970;-73
2022/09/29 03:23:33;;;;;;;7.72;4.00;;;;;;;9.52;100.00;99487.46;1749961;80;21029;-72
2022/09/29 03:25:59;;;;;;;5.35;4.95;;;;;;;9.48;100.00;99477.73;1754970;79;21013;-71
2022/09/29 03:28:25;;;;;;;4.83;4.42;;;;;;;9.48;100.00;99482.24;1743537;80;21070;-71
2022/09/29 03:30:54;;;;;;;4.12;3.90;;;;;;;9.47;100.00;99484.06;1721456;82;21018;-71
2022/09/29 03:33:20;;;;;;;5.00;4.60;;;;;;;9.47;100.00;99484.06;1708659;82;20971;-72
2022/09/29 03:35:46;;;;;;;;;;;;;;;9.46;100.00;99481.11;1715218;82;21847;-72
2022/09/29 03:38:12;;;;;;;4.37;4.07;;;;;;;9.46;100.00;99482.96;1731895;81;20122;-71
2022/09/29 03:40:38;;;;;;;4.42;4.10;;;;;;;9.41;100.00;99483.55;1742102;81;20999;-71
2022/09/29 03:43:04;;;;;;;6.42;4.55;;;;;;;9.41;100.00;99493.38;1702508;83;21037;-72
2022/09/29 03:45:31;;;;;;;;;;;;;;;9.42;100.00;99493.18;1717880;82;21084;-72
2022/09/29 03:47:58;;;;;;;4.87;4.37;;;;;;;9.42;100.00;99498.50;1708581;83;20099;-72
2022/09/29 03:50:24;;;;;;;4.47;4.13;;;;;;;9.38;100.00;99506.58;1706687;82;21034;-72
2022/09/29 03:52:50;;;;;;;4.65;3.92;;;;;;;9.38;100.00;99507.91;1702007;83;21013;-72
2022/09/29 03:55:16;;;;;;;4.55;4.25;;;;;;;9.40;100.00;99507.19;1699566;82;20982;-76
2022/09/29 03:57:43;;;;;;;4.15;3.77;;;;;;;9.40;100.00;99509.85;1684090;82;21124;-72
2022/09/29 04:00:11;;;;;;;5.03;4.27;;;;;;;9.41;100.00;99512.80;1696252;82;21556;-73
2022/09/29 04:02:37;;;;;;;4.90;4.50;;;;;;;9.42;100.00;99506.97;1711852;81;21074;-71
2022/09/29 04:05:04;;;;;;;8.40;5.35;;;;;;;9.43;100.00;99513.42;1740551;81;20992;-76
2022/09/29 04:07:31;;;;;;;4.67;4.23;;;;;;;9.46;100.00;99524.19;1719823;81;21439;-72
2022/09/29 04:09:57;;;;;;;5.10;4.70;;;;;;;9.47;100.00;99531.13;1733016;81;20998;-72
2022/09/29 04:12:23;;;;;;;4.67;4.30;;;;;;;9.49;100.00;99535.73;1720534;81;21213;-74
2022/09/29 04:14:49;;;;;;;5.20;4.75;;;;;;;9.51;100.00;99537.69;1717682;82;21594;-72
2022/09/29 04:17:15;;;;;;;7.85;3.85;;;;;;;9.53;100.00;99534.31;1726477;81;20999;-74
2022/09/29 04:19:42;;;;;;;4.50;4.20;;;;;;;9.53;100.00;99539.63;1721058;81;21501;-74
2022/09/29 04:22:09;;;;;;;5.53;5.00;;;;;;;9.55;100.00;99538.95;1716796;81;21029;-79
2022/09/29 04:24:35;;;;;;;5.73;5.13;;;;;;;9.57;100.00;99538.72;1742776;80;21009;-77
2022/09/29 04:27:01;;;;;;;6.62;4.53;;;;;;;9.61;100.00;99539.98;1718438;81;21046;-75
2022/09/29 04:29:27;;;;;;;4.90;4.45;;;;;;;9.64;100.00;99543.55;1732358;80;21570;-70
2022/09/29 04:31:53;;;;;;;5.03;4.65;;;;;;;9.65;100.00;99547.87;1737685;80;21517;-73
2022/09/29 04:34:19;;;;;;;5.33;4.72;;;;;;;9.66;100.00;99542.84;1742239;80;20972;-71
2022/09/29 04:36:45;;;;;;;;;;;;;;;9.69;100.00;99539.78;1730635;80;21066;-72
2022/09/29 04:39:11;;;;;;;4.80;4.40;;;;;;;9.73;100.00;99534.36;1734831;80;20415;-71
2022/09/29 04:41:38;;;;;;;4.42;4.12;;;;;;;9.74;100.00;99534.16;1723259;81;20990;-70
2022/09/29 04:44:05;;;;;;;5.43;5.03;;;;;;;9.79;100.00;99538.05;1739707;81;21053;-67
2022/09/29 04:46:31;;;;;;;6.20;4.40;;;;;;;9.83;100.00;99540.61;1667568;84;21093;-71
2022/09/29 04:48:58;;;;;;;5.30;5.00;;;;;;;9.86;100.00;99548.20;1672538;82;21108;-68
2022/09/29 04:51:25;;;;;;;5.65;4.62;;;;;;;9.90;100.00;99548.10;1766838;79;21541;-70
2022/09/29 04:53:52;;;;;;;4.60;4.30;;;;;;;9.94;100.00;99549.33;1775089;79;21238;-69
2022/09/29 04:56:18;;;;;;;4.97;4.63;;;;;;;9.98;100.00;99544.42;1786136;79;20985;-68
2022/09/29 04:58:44;;;;;;;4.87;4.55;;;;;;;10.02;100.00;99538.50;1780253;79;21508;-70
2022/09/29 05:01:12;;;;;;;5.65;5.15;;;;;;;10.04;100.00;99536.45;1781239;78;21057;-68
2022/09/29 05:03:39;;;;;;;7.20;5.57;;;;;;;10.06;100.00;99534.41;1760900;79;21514;-70
2022/09/29 05:06:08;;;;;;;8.13;5.60;;;;;;;10.09;100.00;99533.97;1761482;80;21048;-69
2022/09/29 05:08:35;;;;;;;10.50;6.80;;;;;;;10.12;100.00;99534.09;1757789;79;21023;-70
2022/09/29 05:11:07;;;;;;;6.57;5.53;;;;;;;10.16;100.00;99529.18;1757334;80;21038;-72
2022/09/29 05:13:33;;;;;;;6.33;5.80;;;;;;;10.21;100.00;99535.53;1764237;79;21017;-69
2022/09/29 05:16:00;;;;;;;6.05;5.37;;;;;;;10.23;100.00;99537.47;1769339;80;21013;-68
2022/09/29 05:18:28;;;;;;;9.90;6.97;;;;;;;10.22;100.00;99541.15;1730162;81;21068;-70
2022/09/29 05:20:54;;;;;;;;;;;;;;;10.23;100.00;99545.46;1748379;81;21012;-70
2022/09/29 05:23:21;;;;;;;6.93;6.33;;;;;;;10.28;100.00;99545.67;1749293;80;20566;-69
2022/09/29 05:25:48;;;;;;;8.30;5.90;;;;;;;10.28;100.00;99543.01;1741358;79;21110;-70
2022/09/29 05:28:15;;;;;;;5.13;4.73;;;;;;;10.37;100.00;99544.16;1707565;82;21067;-73
2022/09/29 05:30:42;;;;;;;6.62;5.95;;;;;;;10.47;100.00;99546.71;1751706;82;21518;-78
2022/09/29 05:33:08;;;;;;;7.97;5.10;;;;;;;10.47;100.00;99546.71;1739847;81;21517;-78
2022/09/29 05:35:34;;;;;;;6.72;5.33;;;;;;;10.56;100.00;99558.48;1729337;82;21003;-76
2022/09/29 05:38:01;;;;;;;5.15;4.70;;;;;;;10.61;100.00;99550.16;1738477;82;21047;-75
2022/09/29 05:40:27;;;;;;;;;;;;;;;10.66;100.00;99560.19;1732277;81;21030;-70
2022/09/29 05:42:53;;;;;;;5.40;4.93;;;;;;;10.70;100.00;99567.58;1744402;82;20126;-68
2022/09/29 05:45:19;;;;;;;6.47;5.08;;;;;;;10.71;100.00;99563.87;1737053;82;21459;-74
2022/09/29 05:47:46;;;;;;;5.40;4.93;;;;;;;10.78;100.00;99569.20;1732527;81;21075;-71
2022/09/29 05:50:13;;;;;;;7.53;4.42;;;;;;;10.82;99.75;99573.61;1733181;82;21550;-71
2022/09/29 05:52:40;;;;;;;5.43;4.83;;;;;;;10.86;99.50;99575.63;1729032;81;21588;-74
2022/09/29 05:55:09;;;;;;;5.55;4.87;;;;;;;10.91;99.31;99568.36;1732665;81;21037;-70
2022/09/29 05:57:36;;;;;;;5.10;4.70;;;;;;;10.95;98.95;99566.91;1732160;80;21632;-70
2022/09/29 06:00:03;;;;;;;4.30;4.00;;;;;;;11.00;98.80;99568.92;1734794;81;21068;-70
2022/09/29 06:02:34;;;;;;;6.27;4.73;;;;;;;11.04;98.63;99570.17;1723621;82;21006;-70
2022/09/29 06:05:00;;;;;;;5.62;5.12;;;;;;;11.10;98.59;99572.80;1740487;81;21033;-73
2022/09/29 06:07:27;;;;;;;4.80;4.42;;;;;;;11.15;97.98;99568.19;1746274;81;21041;-71
2022/09/29 06:09:53;;;;;;;4.85;4.45;;;;;;;11.14;97.74;99571.87;1737490;81;21100;-71
2022/09/29 06:12:19;;;;;;;4.65;4.33;;;;;;;11.14;97.65;99572.39;1741161;81;21083;-72
2022/09/29 06:14:46;;;;;;;5.45;4.33;;;;;;;11.14;97.99;99569.72;1741530;81;20996;-72
2022/09/29 06:17:13;;;;;;;6.90;4.50;;;;;;;11.16;97.75;99575.14;1739910;81;20981;-72
2022/09/29 06:19:41;;;;;;;7.53;5.30;;;;;;;11.20;97.50;99572.88;1742425;81;21461;-71
2022/09/29 06:22:07;;;;;;;4.50;3.58;;;;;;;11.23;97.45;99576.47;1714158;82;21057;-70
2022/09/29 06:24:34;;;;;;;7.25;3.83;;;;;;;11.32;97.57;99584.53;1729383;80;21097;-70
2022/09/29 06:27:01;;;;;;;3.58;3.37;;;;;;;11.38;97.31;99585.02;1740995;82;21053;-70
2022/09/29 06:29:28;;;;;;;4.55;4.15;;;;;;;11.44;96.35;99580.16;1748307;81;21458;-71
2022/09/29 06:31:54;;;;;;;;;;;;;;;11.49;96.11;99580.88;1754763;82;21292;-71
2022/09/29 06:34:22;;;;;;;;;;;;;;;11.49;95.28;99583.54;1743613;81;20148;-72
2022/09/29 06:39:32;;;;;;;5.42;4.12;;;;;;;11.38;95.91;99587.69;1735756;82;20978;-71
2022/09/29 06:41:59;;;;;;;4.65;4.25;;;;;;;11.40;95.55;99592.29;1747840;80;20933;-70
2022/09/29 06:44:27;;;;;;;;;;;;;;;11.40;95.20;99594.95;1767615;80;21031;-73
2022/09/29 06:46:54;;;;;;;3.40;3.12;;;;;;;11.41;95.34;99599.25;1742827;80;20468;-70
2022/09/29 06:49:22;;;;;;;5.25;4.15;;;;;;;11.39;95.61;99602.64;1744843;81;20972;-70
2022/09/29 06:51:49;;;;;;;4.05;3.50;;;;;;;11.42;94.80;99606.77;1741975;81;21415;-72
2022/09/29 06:54:20;;;;;;;3.75;3.47;;;;;;;11.46;94.91;99606.64;1760272;80;21349;-70
2022/09/29 06:56:52;;;;;;;3.20;2.90;;;;;;;11.53;94.53;99601.25;1751271;80;20972;-70
2022/09/29 06:59:18;;;;;;;4.05;3.70;;;;;;;11.58;94.40;99603.58;1762706;80;21444;-71
2022/09/29 07:01:48;;;;;;;7.25;3.67;;;;;;;11.66;93.92;99602.55;1764531;80;20968;-71
2022/09/29 07:04:13;;;;;;;4.55;4.15;;;;;;;11.71;93.64;99603.23;1761972;80;21020;-70
2022/09/29 07:06:39;;;;;;;3.55;3.35;;;;;;;11.75;93.52;99611.11;1766087;80;21580;-76
2022/09/29 07:09:05;;;;;;;4.83;4.42;;;;;;;11.80;93.40;99617.45;1759749;80;20959;-70
2022/09/29 07:11:33;;;;;;;4.40;4.08;;;;;;;11.91;93.44;99617.84;1755889;80;21016;-70
2022/09/29 07:14:00;;;;;;;5.78;5.28;;;;;;;11.99;92.93;99614.91;1764987;80;21083;-71
2022/09/29 07:16:26;;;;;;;9.58;5.10;;;;;;;12.10;92.80;99620.09;1743433;80;21016;-77
2022/09/29 07:18:54;;;;;;;5.08;3.90;;;;;;;12.23;92.63;99623.48;1760322;80;21465;-78
2022/09/29 07:21:20;;;;;;;;;;;;;;;12.38;91.73;99622.35;1764629;80;21001;-77
2022/09/29 07:23:46;;;;;;;3.40;3.20;;;;;;;12.55;90.62;99631.45;1762391;80;20126;-77
2022/09/29 07:26:17;;;;;;;7.97;6.47;;;;;;;12.64;89.87;99621.32;1763368;79;21008;-78
2022/09/29 07:28:45;;;;;;;5.37;4.00;;;;;;;12.79;89.79;99617.78;1761003;80;21032;-77
2022/09/29 07:31:18;;;;;;;4.10;3.80;;;;;;;12.98;89.79;99621.30;1755171;80;20965;-77
2022/09/29 07:33:48;;;;;;;4.97;3.62;;;;;;;13.18;88.24;99623.73;1757262;80;21040;-78
2022/09/29 07:36:17;;;;;;;3.87;3.58;;;;;;;13.35;85.79;99628.00;1762596;80;21047;-77
2022/09/29 07:38:48;;;;;;;3.85;3.55;;;;;;;13.40;84.18;99629.50;1764380;80;21497;-76
2022/09/29 07:41:15;;;;;;;4.30;4.00;;;;;;;13.46;84.08;99622.96;1762206;80;21599;-81
2022/09/29 07:43:42;;;;;;;5.75;3.83;;;;;;;13.43;84.22;99629.06;1761371;80;21559;-78
2022/09/29 07:46:09;;;;;;;4.17;3.87;;;;;;;13.53;84.33;99622.36;1764386;80;21008;-81
2022/09/29 07:48:37;;;;;;;3.83;3.60;;;;;;;13.62;84.15;99621.83;1756688;80;21052;-77
2022/09/29 07:51:14;;;;;;;14.23;4.15;;;;;;;13.74;84.11;99619.19;1748305;80;20973;-75
2022/09/29 07:53:42;;;;;;;3.10;2.87;;;;;;;13.85;82.54;99616.27;1762279;80;21642;-82
2022/09/29 07:56:11;;;;;;;;;;;;;;;13.85;81.28;99611.44;1742204;81;21598;-76
2022/09/29 07:58:38;;;;;;;4.30;2.67;;;;;;;13.78;80.84;99599.47;1754110;80;20149;-77
2022/09/29 08:01:09;;;;;;;2.95;2.72;;;;;;;13.74;81.34;99604.45;1758246;80;21052;-80
2022/09/29 08:03:40;;;;;;;3.98;2.77;;;;;;;13.78;81.91;99608.31;1764865;80;21268;-77
2022/09/29 08:06:08;;;;;;;5.45;3.75;;;;;;;13.80;81.80;99606.75;1756180;80;20991;-78
2022/09/29 08:08:40;;;;;;;6.28;3.70;;;;;;;13.79;81.98;99613.17;1761820;80;21052;-78
2022/09/29 08:11:14;;;;;;;5.33;4.05;;;;;;;13.78;82.53;99618.22;1760375;80;21005;-76
2022/09/29 08:13:41;;;;;;;4.58;4.17;;;;;;;13.81;82.85;99623.94;1740849;81;20985;-77
2022/09/29 08:16:12;;;;;;;8.25;3.77;;;;;;;13.89;83.31;99620.13;1751358;80;21102;-78
2022/09/29 08:18:38;;;;;;;4.22;3.70;;;;;;;13.96;83.32;99623.53;1765300;80;20992;-76
2022/09/29 08:21:05;;;;;;;4.87;4.47;;;;;;;14.01;83.49;99618.31;1758704;78;21598;-79
2022/09/29 08:23:38;;;;;;;7.28;5.12;;;;;;;14.08;83.25;99615.52;1734108;81;21011;-76
2022/09/29 08:26:08;;;;;;;6.03;4.87;;;;;;;14.15;83.24;99618.11;1763352;80;21024;-77
2022/09/29 08:28:37;;;;;;;8.58;4.62;;;;;;;14.28;83.04;99613.05;1765526;80;20976;-77
2022/09/29 08:31:08;;;;;;;5.10;4.62;;;;;;;14.36;82.48;99618.91;1757659;80;21028;-80
2022/09/29 08:33:36;;;;;;;8.10;4.53;;;;;;;14.49;82.56;99613.86;1757656;80;21000;-75
2022/09/29 08:36:13;;;;;;;6.42;4.30;;;;;;;14.69;80.87;99620.77;1752413;80;21010;-81
2022/09/29 08:38:33;;;;;;;10.53;4.33;;;;;;;14.83;80.77;99616.00;1746407;80;21503;-77
2022/09/29 08:41:04;;;;;;;7.55;3.75;;;;;;;14.94;79.53;99607.94;1753165;80;20976;-77
2022/09/29 08:43:38;;;;;;;3.55;2.80;;;;;;;15.06;80.04;99604.43;1723523;80;21568;-76
2022/09/29 08:46:24;;;;;;;2.85;2.47;;;;;;;15.23;77.49;99611.23;1762034;80;21465;-78
2022/09/29 08:48:52;;;;;;;3.15;2.15;;;;;;;15.38;76.79;99604.29;1755777;80;22154;-77
2022/09/29 08:51:29;;;;;;;5.58;1.87;;;;;;;15.54;75.56;99603.28;1763458;80;22059;-79
2022/09/29 08:54:00;;;;;;;3.03;2.23;;;;;;;15.67;72.33;99602.99;1747633;80;20992;-78
2022/09/29 08:56:27;;;;;;;3.33;1.72;;;;;;;15.75;72.70;99602.63;1756783;80;21002;-77
2022/09/29 08:58:53;;;;;;;2.87;1.80;;;;;;;15.80;71.37;99606.45;1752517;80;21078;-77
2022/09/29 09:01:49;;;;;;;17.45;2.15;;;;;;;15.84;70.39;99611.64;1732329;81;21011;-80
2022/09/29 09:04:33;;;;;;;1.52;1.30;;;;;;;15.86;69.08;99605.48;1765929;80;21584;-81
2022/09/29 09:07:46;;;;;;;1.98;1.42;;;;;;;15.86;68.29;99594.73;1803333;77;21664;-80
2022/09/29 09:10:29;;;;;;;1.40;0.62;;;;;;;15.94;67.64;99607.27;1768895;79;21068;-79
2022/09/29 09:13:20;;;;;;;1.60;1.12;;;;;;;16.05;62.92;99609.62;1765095;79;21430;-77
2022/09/29 09:16:22;;;;;;;0.78;0.78;;;;;;;16.07;63.98;99594.59;1796053;78;21057;-77
2022/09/29 09:19:17;;;;;;;1.60;1.15;;;;;;;16.00;63.57;99596.08;1818899;77;21096;-77
2022/09/29 09:21:53;;;;;;;1.35;0.80;;;;;;;15.93;62.54;99572.56;1727367;78;21085;-78
2022/09/29 09:24:30;;;;;;;2.85;0.88;;;;;;;15.91;62.42;99594.84;1798901;77;20972;-85
2022/09/29 09:26:58;;;;;;;1.05;0.90;;;;;;;15.94;62.39;99588.99;1813240;77;21075;-83
2022/09/29 09:29:33;;;;;;;1.85;0.65;;;;;;;15.99;61.08;99566.75;1802561;77;21029;-79
2022/09/29 09:32:10;;;;;;;0.72;0.68;;;;;;;16.03;60.96;99582.67;1810597;77;21085;-76
2022/09/29 09:34:55;;;;;;;2.80;0.60;;;;;;;16.10;60.79;99578.77;1813562;77;21021;-76
2022/09/29 09:37:26;;;;;;;0.60;0.57;;;;;;;16.21;60.78;99589.17;1799123;77;22397;-79
2022/09/29 09:40:26;;;;;;;0.75;0.53;;;;;;;16.30;60.99;99583.68;1824906;77;20970;-76
2022/09/29 09:43:13;;;;;;;2.72;0.68;;;;;;;16.39;60.56;99585.44;1812407;77;20962;-78
2022/09/29 09:45:49;;;;;;;1.30;0.35;;;;;;;16.45;60.66;99579.07;1813535;77;21457;-78
2022/09/29 09:48:27;;;;;;;2.45;0.57;;;;;;;16.51;60.58;99578.08;1787331;78;21001;-80
2022/09/29 09:50:56;;;;;;;2.58;0.60;;;;;;;16.51;60.58;99578.08;1789841;79;21025;-76
2022/09/29 09:53:39;;;;;;;2.95;0.70;;;;;;;16.61;60.52;99572.03;1794327;78;20997;-79
2022/09/29 09:56:32;;;;;;;3.55;0.82;;;;;;;16.61;60.52;99572.03;1807915;77;21073;-76
2022/09/29 09:59:30;;;;;;;0.60;0.60;;;;;;;16.62;61.23;99583.63;1809927;77;21048;-80
2022/09/29 10:01:57;;;;;;;0.95;0.95;;;;;;;16.63;60.44;99578.02;1789238;77;21540;-86
2022/09/29 10:04:24;;;;;;;0.53;0.53;;;;;;;16.74;60.42;99587.86;1802084;77;21083;-78
2022/09/29 10:06:51;;;;;;;1.90;0.60;;;;;;;16.74;60.42;99587.86;1815675;77;21064;-77
2022/09/29 10:09:19;;;;;;;1.15;0.50;;;;;;;16.80;57.36;99586.06;1811309;77;21572;-77
2022/09/29 10:11:46;;;;;;;1.10;0.60;;;;;;;16.84;57.71;99581.00;1810538;77;20973;-77
2022/09/29 10:14:26;;;;;;;0.30;0.20;;;;;;;16.88;57.33;99591.03;1808396;77;20973;-79
2022/09/29 10:17:05;;;;;;;1.02;0.40;;;;;;;16.86;56.10;99578.36;1816431;77;21004;-77
2022/09/29 10:20:00;;;;;;;0.50;0.30;;;;;;;16.79;56.42;99585.77;1827537;77;20981;-76
2022/09/29 10:22:29;;;;;;;1.85;0.50;;;;;;;16.74;56.69;99576.26;1784129;78;21575;-76
2022/09/29 10:25:13;;;;;;;0.60;0.60;;;;;;;16.77;58.33;99581.70;1811431;77;21577;-81
2022/09/29 10:27:53;;;;;;;0.70;0.57;;;;;;;16.85;58.50;99590.72;1808144;79;21073;-78
2022/09/29 10:30:27;;;;;;;0.80;0.33;;;;;;;16.93;59.05;99588.42;1807173;77;21193;-79
2022/09/29 10:32:58;;;;;;;2.80;0.40;;;;;;;17.03;58.90;99593.12;1813354;78;20957;-76
2022/09/29 10:35:30;;;;;;;0.55;0.47;;;;;;;17.14;59.07;99579.27;1817856;77;21077;-82
2022/09/29 10:38:23;;;;;;;0.35;0.35;;;;;;;17.28;57.78;99595.31;1819233;77;21507;-77
2022/09/29 10:41:04;;;;;;;1.32;0.30;;;;;;;17.37;57.58;99593.01;1798680;77;20962;-78
2022/09/29 10:43:43;;;;;;;0.57;0.20;;;;;;;17.43;56.21;99577.72;1816832;77;21090;-78
2022/09/29 10:46:44;;;;;;;0.62;0.33;;;;;;;17.50;55.71;99581.04;1805379;77;21005;-77
2022/09/29 10:49:20;;;;;;;0.70;0.20;;;;;;;17.58;54.02;99580.58;1793401;77;21051;-78
2022/09/29 10:52:02;;;;;;;2.05;0.20;;;;;;;17.55;52.88;99584.31;1820302;77;21143;-82
2022/09/29 10:54:34;;;;;;;0.78;0.45;;;;;;;17.52;52.87;99580.25;1816318;77;21469;-79
2022/09/29 10:57:14;;;;;;;0.20;0.20;;;;;;;17.53;52.61;99583.75;1798700;77;20962;-77
2022/09/29 10:59:49;;;;;;;0.78;0.42;;;;;;;17.57;51.10;99589.72;1811712;77;21001;-86
2022/09/29 11:02:23;;;;;;;0.10;0.10;;;;;;;17.62;50.77;99585.73;1819215;77;21008;-76
2022/09/29 11:04:51;;;;;;;0.20;0.20;;;;;;;17.66;51.04;99568.53;1798333;78;20970;-76
2022/09/29 11:07:19;;;;;;;1.75;0.10;;;;;;;17.69;50.39;99566.15;1811424;77;22108;-77
2022/09/29 11:09:45;;;;;;;0.40;0.30;;;;;;;17.69;50.22;99570.73;1813873;77;21427;-78
2022/09/29 11:12:30;;;;;;;1.98;0.10;;;;;;;17.74;50.47;99556.48;1813763;77;21021;-79
2022/09/29 11:15:01;;;;;;;1.20;0.10;;;;;;;17.71;48.20;99570.75;1795998;77;21077;-77
2022/09/29 11:17:38;;;;;;;0.15;0.10;;;;;;;17.78;48.61;99560.28;1819233;77;21299;-79
2022/09/29 11:20:13;;;;;;;1.17;0.10;;;;;;;17.78;48.02;99565.67;1818077;77;20969;-78
2022/09/29 11:23:32;;;;;;;2.12;0.20;;;;;;;17.81;47.73;99557.09;1813668;77;21607;-77
2022/09/29 11:26:23;;;;;;;0.20;0.10;;;;;;;17.86;47.96;99563.92;1809185;77;20997;-77
2022/09/29 11:29:31;;;;;;;0.42;0.10;;;;;;;17.97;48.32;99566.98;1818142;77;21618;-81
2022/09/29 11:32:31;;;;;;;0.08;0.00;;;;;;;18.13;47.71;99563.07;1803631;77;20985;-78
2022/09/29 11:35:28;;;;;;;2.08;0.10;;;;;;;18.17;46.84;99570.92;1798818;77;21252;-76
2022/09/29 11:38:23;;;;;;;0.20;0.10;;;;;;;18.21;47.61;99558.55;1797576;77;20958;-75
2022/09/29 11:41:21;;;;;;;1.67;0.17;;;;;;;18.28;48.55;99564.54;1808126;78;21016;-77
2022/09/29 11:44:15;;;;;;;0.20;0.10;;;;;;;18.35;48.38;99565.69;1816726;77;21005;-80
2022/09/29 11:47:02;;;;;;;0.85;0.17;;;;;;;18.35;47.59;99560.28;1812797;77;21159;-74
2022/09/29 11:49:54;;;;;;;1.20;0.10;;;;;;;18.31;48.02;99573.98;1819367;77;21015;-82
2022/09/29 11:52:42;;;;;;;0.30;0.30;;;;;;;18.26;48.31;99563.98;1808890;77;21117;-77
2022/09/29 11:55:45;;;;;;;1.95;0.20;;;;;;;18.25;49.14;99560.48;1815485;77;21081;-79
2022/09/29 11:58:35;;;;;;;0.20;0.20;;;;;;;18.26;49.65;99558.59;1816874;77;21008;-75
2022/09/29 12:01:56;;;;;;;0.95;0.10;;;;;;;18.28;49.42;99556.45;1815525;77;20994;-77
2022/09/29 12:04:45;;;;;;;2.47;0.50;;;;;;;18.27;49.44;99574.52;1812844;77;22053;-79
2022/09/29 12:07:32;;;;;;;1.12;0.10;;;;;;;18.29;49.88;99567.53;1818574;77;21029;-79
2022/09/29 12:10:25;;;;;;;0.40;0.20;;;;;;;18.38;50.28;99570.55;1814311;77;21024;-79